createdAt,value
2022-10-02T15:52:01.090Z,26.40
2022-10-02T15:54:38.899Z,26.70
2022-10-02T15:57:30.011Z,26.90
2022-10-02T16:00:16.598Z,27.10
2022-10-02T16:03:28.386Z,27.30
2022-10-02T16:06:02.113Z,27.60
2022-10-02T16:09:02.961Z,27.90
2022-10-02T16:11:39.214Z,27.90
2022-10-02T16:14:34.391Z,27.80
2022-10-02T16:17:16.899Z,27.80
2022-10-02T16:19:59.770Z,27.30
2022-10-02T16:22:42.303Z,26.70
2022-10-02T16:25:15.414Z,26.10
2022-10-02T16:27:53.586Z,25.30
2022-10-02T16:30:23.930Z,24.50
2022-10-02T16:33:21.937Z,23.90
2022-10-02T16:36:00.771Z,23.20
2022-10-02T16:39:09.519Z,23.10
2022-10-02T16:41:58.476Z,23.40
2022-10-02T16:44:47.556Z,23.40
2022-10-02T16:47:42.731Z,23.00
2022-10-02T16:50:16.045Z,22.50
2022-10-02T16:52:59.086Z,21.90
2022-10-02T16:55:52.030Z,21.50
2022-10-02T16:59:00.514Z,21.00
2022-10-02T17:02:17.074Z,20.60
2022-10-02T17:05:44.065Z,20.10
2022-10-02T17:08:51.373Z,19.90
2022-10-02T17:11:32.717Z,19.70
2022-10-02T17:14:11.766Z,19.40
2022-10-02T17:16:59.091Z,19.30
2022-10-02T17:19:45.824Z,19.10
2022-10-02T17:22:38.054Z,18.90
2022-10-02T17:25:34.864Z,18.70
2022-10-02T17:28:24.032Z,18.40
2022-10-02T17:31:22.645Z,18.40
2022-10-02T17:33:57.209Z,18.10
2022-10-02T17:36:52.010Z,18.10
2022-10-02T17:39:54.915Z,18.10
2022-10-02T17:42:43.749Z,17.50
2022-10-02T17:45:14.323Z,17.60
2022-10-02T17:48:05.805Z,17.90
2022-10-02T17:51:01.905Z,17.40
2022-10-02T17:56:34.848Z,17.20
2022-10-02T17:59:20.393Z,17.20
2022-10-02T18:02:09.553Z,17.20
2022-10-02T18:07:46.354Z,17.00
2022-10-02T18:10:25.704Z,16.60
2022-10-02T18:13:08.785Z,16.20
2022-10-02T18:15:54.534Z,16.20
2022-10-02T18:18:34.290Z,16.50
2022-10-02T18:21:20.514Z,16.50
2022-10-02T18:24:12.216Z,16.40
2022-10-02T18:29:24.097Z,16.40
2022-10-02T18:32:27.278Z,16.40
2022-10-02T18:35:15.780Z,16.30
2022-10-02T18:38:15.456Z,16.20
2022-10-02T18:41:09.219Z,16.20
2022-10-02T18:43:47.618Z,16.10
2022-10-02T18:46:35.301Z,16.10
2022-10-02T18:49:08.813Z,16.00
2022-10-02T18:51:36.242Z,15.90
2022-10-02T18:54:24.818Z,15.90
2022-10-02T18:57:12.535Z,15.80
2022-10-02T19:00:13.217Z,15.70
2022-10-02T19:03:12.051Z,15.70
2022-10-02T19:05:48.949Z,15.70
2022-10-02T19:08:28.559Z,15.70
2022-10-02T19:10:56.132Z,15.60
2022-10-02T19:13:30.230Z,15.50
2022-10-02T19:15:58.596Z,15.80
2022-10-02T19:18:28.790Z,15.60
2022-10-02T19:21:12.746Z,15.40
2022-10-02T19:23:50.634Z,15.40
2022-10-02T19:26:40.573Z,15.30
2022-10-02T19:29:41.727Z,15.30
2022-10-02T19:32:40.468Z,15.20
2022-10-02T19:35:22.248Z,15.10
2022-10-02T19:37:53.778Z,15.00
2022-10-02T19:40:24.798Z,14.90
2022-10-02T19:43:18.624Z,14.90
2022-10-02T19:45:52.105Z,14.80
2022-10-02T19:48:20.173Z,14.70
2022-10-02T19:50:51.613Z,14.70
2022-10-02T19:53:37.580Z,14.60
2022-10-02T19:56:11.386Z,14.50
2022-10-02T19:58:50.621Z,14.50
2022-10-02T20:01:26.217Z,14.50
2022-10-02T20:03:59.287Z,14.40
2022-10-02T20:06:37.635Z,14.30
2022-10-02T20:09:19.062Z,14.30
2022-10-02T20:12:14.478Z,14.30
2022-10-02T20:14:49.889Z,14.20
2022-10-02T20:17:19.002Z,14.10
2022-10-02T20:19:56.137Z,14.10
2022-10-02T20:22:44.649Z,14.10
2022-10-02T20:25:29.542Z,14.00
2022-10-02T20:28:05.969Z,14.00
2022-10-02T20:30:42.482Z,13.80
2022-10-02T20:33:24.428Z,13.80
2022-10-02T20:35:57.318Z,13.70
2022-10-02T20:38:35.909Z,13.70
2022-10-02T20:41:12.632Z,13.60
2022-10-02T20:43:54.949Z,13.50
2022-10-02T20:46:51.592Z,13.50
2022-10-02T20:49:30.853Z,13.50
2022-10-02T20:52:07.096Z,13.50
2022-10-02T20:54:59.535Z,13.40
2022-10-02T20:58:05.566Z,13.40
2022-10-02T21:01:20.848Z,13.40
2022-10-02T21:04:18.441Z,13.30
2022-10-02T21:07:04.168Z,13.20
2022-10-02T21:10:20.447Z,13.20
2022-10-02T21:12:54.989Z,13.20
2022-10-02T21:15:31.138Z,13.20
2022-10-02T21:18:10.405Z,13.10
2022-10-02T21:21:10.230Z,13.10
2022-10-02T21:23:49.436Z,13.00
2022-10-02T21:26:58.189Z,12.90
2022-10-02T21:29:44.677Z,12.80
2022-10-02T21:32:30.774Z,12.70
2022-10-02T21:35:24.707Z,12.70
2022-10-02T21:37:58.463Z,12.70
2022-10-02T21:40:25.668Z,12.70
2022-10-02T21:43:20.775Z,12.70
2022-10-02T21:46:25.171Z,12.60
2022-10-02T21:49:26.745Z,12.60
2022-10-02T21:52:02.779Z,12.50
2022-10-02T21:55:01.526Z,12.40
2022-10-02T21:57:59.610Z,12.30
2022-10-02T22:00:27.968Z,12.20
2022-10-02T22:03:14.319Z,12.00
2022-10-02T22:06:14.971Z,12.10
2022-10-02T22:08:56.721Z,12.10
2022-10-02T22:11:26.742Z,12.00
2022-10-02T22:13:59.914Z,12.00
2022-10-02T22:17:00.637Z,12.00
2022-10-02T22:19:28.210Z,12.00
2022-10-02T22:22:19.992Z,12.00
2022-10-02T22:25:07.996Z,12.00
2022-10-02T22:27:49.880Z,11.90
2022-10-02T22:30:55.370Z,11.90
2022-10-02T22:33:32.237Z,11.90
2022-10-02T22:36:08.653Z,11.90
2022-10-02T22:38:36.060Z,11.80
2022-10-02T22:41:30.029Z,11.80
2022-10-02T22:44:09.239Z,11.70
2022-10-02T22:46:41.488Z,11.70
2022-10-02T22:49:29.757Z,11.60
2022-10-02T22:52:00.166Z,11.60
2022-10-02T22:54:51.709Z,11.60
2022-10-02T22:57:37.402Z,11.50
2022-10-02T23:00:12.258Z,11.50
2022-10-02T23:02:54.176Z,11.50
2022-10-02T23:05:54.415Z,11.40
2022-10-02T23:08:32.962Z,11.40
2022-10-02T23:11:32.373Z,11.30
2022-10-02T23:14:17.432Z,11.30
2022-10-02T23:16:51.874Z,11.20
2022-10-02T23:19:25.593Z,11.20
2022-10-02T23:22:31.095Z,11.10
2022-10-02T23:25:34.481Z,11.10
2022-10-02T23:28:01.899Z,11.00
2022-10-02T23:30:32.583Z,11.00
2022-10-02T23:33:02.929Z,11.00
2022-10-02T23:35:55.068Z,10.90
2022-10-02T23:38:48.457Z,10.90
2022-10-02T23:41:37.464Z,10.90
2022-10-02T23:44:19.342Z,10.80
2022-10-02T23:46:49.801Z,10.80
2022-10-02T23:49:19.818Z,10.80
2022-10-02T23:52:12.224Z,10.70
2022-10-02T23:54:58.532Z,10.70
2022-10-02T23:57:36.859Z,10.70
